Flight Track Log - Related Links

Times and Time Zones

All times are in EDT time to prevent confusion due to time zone crossing. See the N173AA flight status page for this flight to view local times or setup timezone preferences in your user account.

Time Position Orientation Groundspeed Altitude Reporting Facility
EDT Latitude Longitude Course Direction KTS MPH feet Rate Location/Type
Thu 02:59:38 PM 26.0786 -80.0697 85° East 199 229 2,900  Level Miami Center
Thu 03:00:45 PM 26.1233 -80.0292 39° Northeast 217 250 3,900 976 Climbing Miami Center
Thu 03:01:41 PM 26.1728 -80.0536 336° Northwest 224 258 4,900 619 Climbing Miami Center
Thu 03:02:22 PM 26.2100 -80.0756 332° Northwest 260 299 4,900 178 Level Miami Center
Thu 03:03:22 PM 26.2631 -80.1281 318° Northwest 266 306 5,200 1,000 Climbing Miami Center
Thu 03:04:22 PM 26.3183 -80.1781 321° Northwest 261 300 6,900 1,950 Climbing Miami Center
Thu 03:05:22 PM 26.3778 -80.2331 320° Northwest 251 289 9,100 2,000 Climbing Miami Center
Thu 03:06:22 PM 26.4228 -80.2739 321° Northwest 244 281 10,900 2,000 Climbing Miami Center
Thu 03:07:22 PM 26.4800 -80.3267 320° Northwest 244 281 13,100 2,000 Climbing Miami Center
Thu 03:08:22 PM 26.5228 -80.3650 321° Northwest 232 267 14,900 1,450 Climbing Miami Center
Thu 03:09:22 PM 26.5781 -80.4178 320° Northwest 232 267 16,000 850 Climbing Miami Center
Thu 03:10:22 PM 26.6247 -80.4750 312° West 255 293 16,600 900 Climbing Miami Center
Thu 03:11:22 PM 26.6750 -80.5508 307° West 273 314 17,800 1,350 Climbing Miami Center
Thu 03:12:22 PM 26.7108 -80.6122 303° West 272 313 19,300 1,450 Climbing Miami Center
Thu 03:13:22 PM 26.7256 -80.6942 281° West 250 288 20,700 1,400 Climbing Miami Center
Thu 03:14:22 PM 26.7403 -80.7714 282° West 250 288 22,100 1,100 Climbing Miami Center
Thu 03:15:22 PM 26.7528 -80.8486 280° West 250 288 22,900 800 Climbing Miami Center
Thu 03:16:22 PM 26.7650 -80.9306 280° West 263 303 23,700 550 Climbing Miami Center
Thu 03:17:22 PM 26.7769 -81.0217 278° West 276 318 24,000 150 Climbing Miami Center
Thu 03:18:22 PM 26.7892 -81.1058 279° West 292 336 24,000  Level Miami Center
Thu 03:19:22 PM 26.8031 -81.1994 279° West 304 350 24,000  Level Miami Center
Thu 03:20:22 PM 26.8192 -81.2953 281° West 316 364 24,000  Level Miami Center
Thu 03:21:22 PM 26.8858 -81.3631 318° Northwest 295 339 24,000  Level Miami Center
Thu 03:22:22 PM 26.9636 -81.4103 332° Northwest 313 360 24,000  Level Miami Center
Thu 03:23:22 PM 27.0519 -81.4628 332° Northwest 323 372 24,000 500 Level Miami Center
Thu 03:24:22 PM 27.1339 -81.5081 334° Northwest 323 372 25,000 1,000 Climbing Miami Center
Thu 03:25:22 PM 27.2097 -81.5508 333° Northwest 318 366 26,000 500 Climbing Miami Center
Thu 03:26:22 PM 27.2814 -81.5933 332° Northwest 318 366 26,000  Level Miami Center
Thu 03:27:22 PM 27.3656 -81.6411 333° Northwest 328 377 26,000  Level Miami Center
Thu 03:28:22 PM 27.4597 -81.6942 333° Northwest 343 395 26,000  Level Miami Center
Thu 03:29:22 PM 27.5414 -81.7444 331° Northwest 343 395 26,000  Level Miami Center
Thu 03:30:22 PM 27.6294 -81.7928 334° Northwest 338 389 26,000  Level Miami Center
Thu 03:32:16 PM 27.7831 -81.8864 332° Northwest 339 390 26,000  Level Jacksonville Center
Thu 03:33:16 PM 27.8689 -81.9394 331° Northwest 344 396 26,000 -50 Level Jacksonville Center
Thu 03:34:16 PM 27.9528 -81.9881 333° Northwest 344 396 25,900  Descending Jacksonville Center
Thu 03:35:16 PM 28.0344 -82.0392 331° Northwest 338 389 26,000 50 Climbing Jacksonville Center
Thu 03:36:16 PM 28.1142 -82.0878 332° Northwest 333 383 26,000  Level Jacksonville Center
Thu 03:37:16 PM 28.1917 -82.1414 329° Northwest 328 377 26,000 -50 Level Jacksonville Center
Thu 03:38:16 PM 28.2711 -82.1903 332° Northwest 323 372 25,900  Descending Jacksonville Center
Thu 03:39:16 PM 28.3672 -82.1942 358° North 318 366 26,000 50 Climbing Jacksonville Center
Thu 03:40:16 PM 28.4589 -82.1936 360° North 323 372 26,000  Level Jacksonville Center
Thu 03:41:16 PM 28.5528 -82.1978 358° North 329 379 26,000  Level Jacksonville Center
Thu 03:42:16 PM 28.6469 -82.2019 358° North 329 379 26,000 -100 Level Jacksonville Center
Thu 03:43:16 PM 28.7428 -82.2058 358° North 329 379 25,800 -450 Descending Jacksonville Center
Thu 03:44:16 PM 28.8389 -82.2122 357° North 334 384 25,100 -650 Descending Jacksonville Center
Thu 03:45:16 PM 28.9392 -82.2211 356° North 346 398 24,500 -750 Descending Jacksonville Center
Thu 03:46:16 PM 29.0394 -82.2253 358° North 357 411 23,600 -950 Descending Jacksonville Center
Thu 03:47:16 PM 29.1417 -82.2317 357° North 363 418 22,600 -1,250 Descending Jacksonville Center
Thu 03:48:16 PM 29.2356 -82.2406 355° North 357 411 21,100 -1,882 Descending Jacksonville Center
Thu 03:48:58 PM 29.3172 -82.2494 355° North 329 379 19,400 -1,900 Descending Jacksonville Center
Thu 03:49:16 PM 29.3317 -82.2469 North 346 398 19,200 -1,500 Descending Jacksonville Center
Thu 03:49:54 PM 29.3986 -82.2536 355° North 331 381 18,000 -1,400 Descending Jacksonville Center
Thu 03:50:16 PM 29.4236 -82.2536 360° North 341 392 17,800 -1,254 Descending Jacksonville Center
Thu 03:51:01 PM 29.5031 -82.2625 354° North 329 379 16,600 -1,400 Descending Jacksonville Center
Thu 03:51:16 PM 29.5156 -82.2600 10° North 330 380 16,400 -787 Descending Jacksonville Center
Thu 03:52:02 PM 29.5886 -82.2669 355° North 307 353 15,800 -729 Descending Jacksonville Center
Thu 03:53:03 PM 29.6697 -82.2258 24° Northeast 315 362 15,100 -683 Descending Jacksonville Center
Thu 03:54:05 PM 29.7447 -82.1797 28° Northeast 308 354 14,400 -634 Descending Jacksonville Center
Thu 03:55:06 PM 29.8236 -82.1289 29° Northeast 308 354 13,800 -738 Descending Jacksonville Center
Thu 03:56:07 PM 29.9006 -82.0781 30° Northeast 316 364 12,900 -969 Descending Jacksonville Center
Thu 03:57:16 PM 29.9881 -82.0219 29° Northeast 308 354 11,700 -1,328 Descending Jacksonville Center
Thu 03:58:09 PM 30.0483 -81.9831 29° Northeast 283 326 10,200 -2,087 Descending Jacksonville Center
Thu 03:59:11 PM 30.1231 -81.9511 20° North 275 316 7,700 -2,558 Descending Jacksonville Center
Thu 04:00:18 PM 30.2003 -81.9239 17° North 257 296 4,700 -2,344 Descending Jacksonville Center
Thu 04:01:19 PM 30.2608 -81.9208 North 207 238 2,700 -1,672 Descending Jacksonville Center
Thu 04:02:20 PM 30.2731 -81.8800 71° East 117 135 1,300 -1,377 Descending Jacksonville Center
Thu 04:04:00 PM 30.2188 -81.8772 177° South  Level Estimated
Thu 04:11:00 PM 30.2188 -81.8772 128° Southeast  Level Estimated

Login

Don't have an account? Register now (free) for customized features, flight alerts, and more!